createdAt,value
2022-07-27T00:01:27.997Z,1012.6
2022-07-27T00:04:40.146Z,1012.6
2022-07-27T00:07:52.293Z,1012.6
2022-07-27T00:11:04.447Z,1012.6
2022-07-27T00:14:16.592Z,1012.6
2022-07-27T00:17:27.756Z,1012.7
2022-07-27T00:20:39.902Z,1012.7
2022-07-27T00:23:52.054Z,1012.6
2022-07-27T00:27:04.217Z,1012.6
2022-07-27T00:30:16.330Z,1012.6
2022-07-27T00:33:28.480Z,1012.5
2022-07-27T00:36:40.643Z,1012.5
2022-07-27T00:39:52.792Z,1012.5
2022-07-27T00:43:04.926Z,1012.6
2022-07-27T00:46:17.093Z,1012.6
2022-07-27T00:49:28.258Z,1012.5
2022-07-27T00:52:39.430Z,1012.5
2022-07-27T00:55:50.614Z,1012.6
2022-07-27T00:59:01.785Z,1012.6
2022-07-27T01:02:13.924Z,1012.7
2022-07-27T01:05:26.082Z,1012.6
2022-07-27T01:08:38.222Z,1012.7
2022-07-27T01:11:50.374Z,1012.7
2022-07-27T01:15:02.538Z,1012.7
2022-07-27T01:18:14.693Z,1012.7
2022-07-27T01:21:26.828Z,1012.7
2022-07-27T01:24:38.982Z,1012.8
2022-07-27T01:27:51.130Z,1012.8
2022-07-27T01:31:03.285Z,1012.8
2022-07-27T01:34:15.433Z,1012.8
2022-07-27T01:37:27.581Z,1012.8
2022-07-27T01:40:38.768Z,1012.8
2022-07-27T01:43:50.901Z,1012.8
2022-07-27T01:47:03.056Z,1012.8
2022-07-27T01:50:15.210Z,1012.8
2022-07-27T01:53:27.358Z,1012.9
2022-07-27T01:56:39.510Z,1012.8
2022-07-27T01:59:51.675Z,1012.7
2022-07-27T02:03:02.850Z,1012.8
2022-07-27T02:06:14.020Z,1012.7
2022-07-27T02:09:25.195Z,1012.8
2022-07-27T02:12:36.357Z,1012.8
2022-07-27T02:15:48.559Z,1012.8
2022-07-27T02:19:00.704Z,1012.9
2022-07-27T02:22:12.863Z,1012.9
2022-07-27T02:25:25.021Z,1012.9
2022-07-27T02:28:37.169Z,1013
2022-07-27T02:31:49.319Z,1013
2022-07-27T02:35:01.468Z,1013
2022-07-27T02:38:13.631Z,1013
2022-07-27T02:41:25.782Z,1012.9
2022-07-27T02:44:37.929Z,1012.9
2022-07-27T02:47:50.079Z,1012.9
2022-07-27T02:51:02.220Z,1012.8
2022-07-27T02:54:13.403Z,1012.8
2022-07-27T02:57:25.550Z,1012.9
2022-07-27T03:00:37.697Z,1012.9
2022-07-27T03:03:49.854Z,1012.9
2022-07-27T03:07:01.996Z,1012.9
2022-07-27T03:10:14.150Z,1012.9
2022-07-27T03:13:26.298Z,1013
2022-07-27T03:16:37.476Z,1013
2022-07-27T03:19:48.637Z,1013
2022-07-27T03:23:00.797Z,1013
2022-07-27T03:26:11.973Z,1012.9
2022-07-27T03:29:23.145Z,1013
2022-07-27T03:32:35.303Z,1013
2022-07-27T03:35:47.441Z,1013.1
2022-07-27T03:38:59.598Z,1013
2022-07-27T03:42:11.745Z,1013.1
2022-07-27T03:45:23.900Z,1013.1
2022-07-27T03:48:36.050Z,1013
2022-07-27T03:51:48.198Z,1013.1
2022-07-27T03:55:00.360Z,1013
2022-07-27T03:58:12.501Z,1013
2022-07-27T04:01:24.657Z,1013
2022-07-27T04:04:36.808Z,1013
2022-07-27T04:07:48.962Z,1013
2022-07-27T04:11:00.123Z,1013.1
2022-07-27T04:14:12.284Z,1013.1
2022-07-27T04:17:24.437Z,1012.9
2022-07-27T04:20:36.592Z,1013
2022-07-27T04:23:48.725Z,1013
2022-07-27T04:27:00.875Z,1013
2022-07-27T04:30:13.038Z,1012.9
2022-07-27T04:33:24.209Z,1012.9
2022-07-27T04:36:35.386Z,1012.9
2022-07-27T04:39:47.546Z,1012.9
2022-07-27T04:42:59.688Z,1012.9
2022-07-27T04:46:11.831Z,1012.9
2022-07-27T04:49:23.983Z,1012.9
2022-07-27T04:52:36.135Z,1012.9
2022-07-27T04:55:48.293Z,1012.9
2022-07-27T04:59:00.438Z,1012.9
2022-07-27T05:02:12.594Z,1013
2022-07-27T05:05:24.735Z,1013.1
2022-07-27T05:08:36.888Z,1013.1
2022-07-27T05:11:49.037Z,1013.1
2022-07-27T05:15:01.204Z,1013
2022-07-27T05:18:12.374Z,1013.1
2022-07-27T05:21:24.513Z,1013.1
2022-07-27T05:24:36.678Z,1013.1
2022-07-27T05:27:48.816Z,1013.2
2022-07-27T05:31:00.978Z,1013.2
2022-07-27T05:34:13.126Z,1013.3
2022-07-27T05:37:25.283Z,1013.3
2022-07-27T05:40:36.455Z,1013.4
2022-07-27T05:43:47.611Z,1013.4
2022-07-27T05:46:58.797Z,1013.5
2022-07-27T05:50:09.968Z,1013.5
2022-07-27T05:53:21.150Z,1013.5
2022-07-27T05:56:32.314Z,1013.5
2022-07-27T05:59:44.466Z,1013.5
2022-07-27T06:02:56.614Z,1013.5
2022-07-27T06:06:08.758Z,1013.6
2022-07-27T06:09:20.915Z,1013.6
2022-07-27T06:12:33.078Z,1013.5
2022-07-27T06:15:45.223Z,1013.6
2022-07-27T06:18:57.382Z,1013.5
2022-07-27T06:22:09.526Z,1013.4
2022-07-27T06:25:21.692Z,1013.5
2022-07-27T06:28:33.849Z,1013.5
2022-07-27T06:31:46.009Z,1013.5
2022-07-27T06:34:58.153Z,1013.6
2022-07-27T06:38:09.318Z,1013.5
2022-07-27T06:41:21.459Z,1013.5
2022-07-27T06:44:33.614Z,1013.6
2022-07-27T06:47:45.777Z,1013.6
2022-07-27T06:50:57.917Z,1013.6
2022-07-27T06:54:10.077Z,1013.7
2022-07-27T06:57:22.229Z,1013.6
2022-07-27T07:00:33.413Z,1013.7
2022-07-27T07:03:44.567Z,1013.7
2022-07-27T07:06:55.757Z,1013.6
2022-07-27T07:10:06.913Z,1013.6
2022-07-27T07:13:19.070Z,1013.7
2022-07-27T07:16:31.213Z,1013.6
2022-07-27T07:19:43.375Z,1013.7
2022-07-27T07:22:55.531Z,1013.7
2022-07-27T07:26:07.674Z,1013.6
2022-07-27T07:29:19.831Z,1013.7
2022-07-27T07:32:31.981Z,1013.8
2022-07-27T07:35:44.123Z,1013.8
2022-07-27T07:38:56.288Z,1013.8
2022-07-27T07:42:08.434Z,1013.8
2022-07-27T07:45:20.575Z,1013.8
2022-07-27T07:48:32.732Z,1013.7
2022-07-27T07:51:43.897Z,1013.7
2022-07-27T07:54:56.058Z,1013.7
2022-07-27T07:58:08.196Z,1013.7
2022-07-27T08:01:20.353Z,1013.7
2022-07-27T08:04:32.494Z,1013.7
2022-07-27T08:07:44.650Z,1013.8
2022-07-27T08:10:56.808Z,1013.8
2022-07-27T08:14:07.994Z,1013.8
2022-07-27T08:17:19.153Z,1013.8
2022-07-27T08:20:31.313Z,1013.9
2022-07-27T08:23:43.462Z,1013.9
2022-07-27T08:26:55.604Z,1013.9
2022-07-27T08:30:07.764Z,1013.9
2022-07-27T08:33:19.908Z,1014
2022-07-27T08:36:32.051Z,1014
2022-07-27T08:39:44.215Z,1013.9
2022-07-27T08:42:56.353Z,1014
2022-07-27T08:46:08.505Z,1014
2022-07-27T08:49:20.665Z,1014
2022-07-27T08:52:32.815Z,1014
2022-07-27T08:55:44.966Z,1014
2022-07-27T08:58:56.143Z,1014
2022-07-27T09:02:08.290Z,1014
2022-07-27T09:05:20.434Z,1014
2022-07-27T09:08:32.596Z,1014
2022-07-27T09:11:44.741Z,1014
2022-07-27T09:14:56.890Z,1014.1
2022-07-27T09:18:09.044Z,1014
2022-07-27T09:21:20.213Z,1014
2022-07-27T09:24:31.391Z,1014
2022-07-27T09:27:42.557Z,1014
2022-07-27T09:30:53.738Z,1014
2022-07-27T09:34:05.890Z,1013.9
2022-07-27T09:37:18.043Z,1013.9
2022-07-27T09:40:30.195Z,1014
2022-07-27T09:43:42.337Z,1014
2022-07-27T09:46:54.499Z,1014
2022-07-27T09:50:06.647Z,1013.9
2022-07-27T09:53:18.780Z,1014
2022-07-27T09:56:30.943Z,1014
2022-07-27T09:59:43.099Z,1014
2022-07-27T10:02:55.240Z,1014
2022-07-27T10:06:07.385Z,1014
2022-07-27T10:09:19.544Z,1014
2022-07-27T10:12:30.699Z,1014
2022-07-27T10:15:42.847Z,1014
2022-07-27T10:18:54.995Z,1013.9
2022-07-27T10:22:07.148Z,1014
2022-07-27T10:25:19.304Z,1014
2022-07-27T10:28:31.450Z,1014
2022-07-27T10:31:43.600Z,1013.9
2022-07-27T10:34:54.775Z,1013.9
2022-07-27T10:38:05.937Z,1013.9
2022-07-27T10:41:18.094Z,1013.9
2022-07-27T10:44:30.246Z,1013.9
2022-07-27T10:47:42.399Z,1013.9
2022-07-27T10:50:54.546Z,1013.8
2022-07-27T10:54:06.684Z,1013.9
2022-07-27T10:57:18.841Z,1013.9
2022-07-27T11:00:30.005Z,1013.9
2022-07-27T11:03:42.174Z,1013.7
2022-07-27T11:06:54.323Z,1013.8
2022-07-27T11:10:06.473Z,1013.9
2022-07-27T11:13:18.622Z,1013.9
2022-07-27T11:16:30.769Z,1013.7
2022-07-27T11:19:42.920Z,1013.7
2022-07-27T11:22:55.056Z,1013.8
2022-07-27T11:26:07.220Z,1013.7
2022-07-27T11:29:19.356Z,1013.8
2022-07-27T11:32:31.513Z,1013.7
2022-07-27T11:35:43.658Z,1013.7
2022-07-27T11:38:55.821Z,1013.7
2022-07-27T11:42:06.985Z,1013.7
2022-07-27T11:45:18.167Z,1013.7
2022-07-27T11:48:30.311Z,1013.7
2022-07-27T11:51:42.462Z,1013.7
2022-07-27T11:54:54.600Z,1013.7
2022-07-27T11:58:06.757Z,1013.7
2022-07-27T12:01:18.912Z,1013.7
2022-07-27T12:04:31.069Z,1013.7
2022-07-27T12:07:43.199Z,1013.7
2022-07-27T12:10:55.363Z,1013.6
2022-07-27T12:14:07.512Z,1013.6
2022-07-27T12:17:19.659Z,1013.6
2022-07-27T12:20:31.800Z,1013.6
2022-07-27T12:23:43.950Z,1013.6
2022-07-27T12:26:55.129Z,1013.5
2022-07-27T12:30:07.279Z,1013.5
2022-07-27T12:33:19.426Z,1013.5
2022-07-27T12:36:31.574Z,1013.5
2022-07-27T12:39:43.732Z,1013.5
2022-07-27T12:42:55.870Z,1013.5
2022-07-27T12:46:08.030Z,1013.5
2022-07-27T12:49:19.211Z,1013.5
2022-07-27T12:52:30.361Z,1013.6
2022-07-27T12:55:41.545Z,1013.5
2022-07-27T12:58:52.706Z,1013.5
2022-07-27T13:02:03.896Z,1013.6
2022-07-27T13:05:15.058Z,1013.5
2022-07-27T13:08:26.230Z,1013.6
2022-07-27T13:11:37.414Z,1013.5
2022-07-27T13:14:49.553Z,1013.6
2022-07-27T13:18:01.705Z,1013.6
2022-07-27T13:21:13.859Z,1013.6
2022-07-27T13:24:26.005Z,1013.6
2022-07-27T13:27:38.149Z,1013.6
2022-07-27T13:30:50.301Z,1013.5
2022-07-27T13:34:02.462Z,1013.5
2022-07-27T13:37:14.607Z,1013.6
2022-07-27T13:40:26.750Z,1013.5
2022-07-27T13:43:38.914Z,1013.6
2022-07-27T13:46:51.049Z,1013.5
2022-07-27T13:50:03.206Z,1013.5
2022-07-27T13:53:14.368Z,1013.5
2022-07-27T13:56:26.525Z,1013.5
2022-07-27T13:59:38.666Z,1013.5
2022-07-27T14:02:50.831Z,1013.6
2022-07-27T14:06:02.985Z,1013.6
2022-07-27T14:09:15.132Z,1013.6
2022-07-27T14:12:27.282Z,1013.5
2022-07-27T14:15:38.461Z,1013.5
2022-07-27T14:18:49.620Z,1013.6
2022-07-27T14:22:01.767Z,1013.5
2022-07-27T14:25:13.912Z,1013.5
2022-07-27T14:28:26.061Z,1013.5
2022-07-27T14:31:38.217Z,1013.5
2022-07-27T14:34:50.372Z,1013.5
2022-07-27T14:38:02.525Z,1013.5
2022-07-27T14:41:14.678Z,1013.4
2022-07-27T14:44:26.822Z,1013.5
2022-07-27T14:47:38.960Z,1013.5
2022-07-27T14:50:51.121Z,1013.5
2022-07-27T14:54:03.257Z,1013.5
2022-07-27T14:57:15.408Z,1013.5
2022-07-27T15:00:26.593Z,1013.6
2022-07-27T15:03:38.729Z,1013.5
2022-07-27T15:06:50.886Z,1013.6
2022-07-27T15:10:03.031Z,1013.5
2022-07-27T15:13:15.188Z,1013.6
2022-07-27T15:16:27.340Z,1013.5
2022-07-27T15:19:39.478Z,1013.5
2022-07-27T15:22:50.659Z,1013.5
2022-07-27T15:26:01.816Z,1013.5
2022-07-27T15:29:12.994Z,1013.4
2022-07-27T15:32:24.169Z,1013.5
2022-07-27T15:35:36.312Z,1013.5
2022-07-27T15:38:48.472Z,1013.6
2022-07-27T15:42:00.617Z,1013.6
2022-07-27T15:45:12.777Z,1013.6
2022-07-27T15:48:24.912Z,1013.5
2022-07-27T15:51:37.064Z,1013.5
2022-07-27T15:54:49.216Z,1013.5
2022-07-27T15:58:01.369Z,1013.5
2022-07-27T16:01:13.525Z,1013.5
2022-07-27T16:04:25.672Z,1013.5
2022-07-27T16:07:37.818Z,1013.4
2022-07-27T16:10:49.973Z,1013.3
2022-07-27T16:14:01.130Z,1013.3
2022-07-27T16:17:13.290Z,1013.3
2022-07-27T16:20:25.423Z,1013.3
2022-07-27T16:23:37.588Z,1013.3
2022-07-27T16:26:49.723Z,1013.2
2022-07-27T16:30:01.000Z,1013.2
2022-07-27T16:33:14.032Z,1013.2
2022-07-27T16:36:25.199Z,1013.2
2022-07-27T16:39:36.371Z,1013.2
2022-07-27T16:42:47.545Z,1013.1
2022-07-27T16:45:58.711Z,1013.1
2022-07-27T16:49:09.887Z,1013.1
2022-07-27T16:52:21.055Z,1013.1
2022-07-27T16:55:32.242Z,1013.1
2022-07-27T16:58:43.404Z,1013.1
2022-07-27T17:01:55.559Z,1013
2022-07-27T17:05:07.695Z,1013.1
2022-07-27T17:08:19.857Z,1013.1
2022-07-27T17:11:32.010Z,1013
2022-07-27T17:14:44.141Z,1013
2022-07-27T17:17:56.303Z,1013
2022-07-27T17:21:08.444Z,1013.1
2022-07-27T17:24:20.606Z,1013
2022-07-27T17:27:32.759Z,1013
2022-07-27T17:30:44.901Z,1013.1
2022-07-27T17:33:57.057Z,1013.1
2022-07-27T17:37:09.210Z,1013
2022-07-27T17:40:20.376Z,1013.1
2022-07-27T17:43:32.513Z,1013
2022-07-27T17:46:44.674Z,1013
2022-07-27T17:49:56.810Z,1013
2022-07-27T17:53:08.967Z,1013
2022-07-27T17:56:21.114Z,1013
2022-07-27T17:59:33.273Z,1013
2022-07-27T18:02:44.450Z,1013.1
2022-07-27T18:05:55.601Z,1013.1
2022-07-27T18:09:06.780Z,1013.2
2022-07-27T18:12:17.950Z,1013.2
2022-07-27T18:15:30.096Z,1013.1
2022-07-27T18:18:42.252Z,1013.2
2022-07-27T18:21:54.393Z,1013.2
2022-07-27T18:25:06.558Z,1013.2
2022-07-27T18:28:18.699Z,1013.2
2022-07-27T18:31:30.851Z,1013.2
2022-07-27T18:34:42.996Z,1013.2
2022-07-27T18:37:55.144Z,1013.3
2022-07-27T18:41:07.308Z,1013.2
2022-07-27T18:44:19.446Z,1013.3
2022-07-27T18:47:31.594Z,1013.3
2022-07-27T18:50:43.759Z,1013.3
2022-07-27T18:53:54.911Z,1013.3
2022-07-27T18:57:07.068Z,1013.4
2022-07-27T19:00:19.205Z,1013.5
2022-07-27T19:03:31.369Z,1013.5
2022-07-27T19:06:43.519Z,1013.5
2022-07-27T19:09:55.669Z,1013.5
2022-07-27T19:13:07.819Z,1013.6
2022-07-27T19:16:18.988Z,1013.6
2022-07-27T19:19:30.158Z,1013.7
2022-07-27T19:22:42.299Z,1013.7
2022-07-27T19:25:54.453Z,1013.7
2022-07-27T19:29:05.648Z,1013.7
2022-07-27T19:32:16.813Z,1013.7
2022-07-27T19:35:28.968Z,1013.7
2022-07-27T19:38:41.113Z,1013.7
2022-07-27T19:41:53.256Z,1013.8
2022-07-27T19:45:05.413Z,1013.8
2022-07-27T19:48:17.568Z,1013.9
2022-07-27T19:51:29.712Z,1014
2022-07-27T19:54:41.876Z,1014
2022-07-27T19:57:54.029Z,1014.1
2022-07-27T20:01:06.178Z,1014.1
2022-07-27T20:04:18.316Z,1014.1
2022-07-27T20:07:30.467Z,1014.2
2022-07-27T20:10:42.636Z,1014.2
2022-07-27T20:13:53.794Z,1014.2
2022-07-27T20:17:05.943Z,1014.3
2022-07-27T20:20:18.098Z,1014.3
2022-07-27T20:23:30.256Z,1014.3
2022-07-27T20:26:42.400Z,1014.4
2022-07-27T20:29:54.559Z,1014.4
2022-07-27T20:33:06.709Z,1014.4
2022-07-27T20:36:17.874Z,1014.4
2022-07-27T20:39:29.043Z,1014.5
2022-07-27T20:42:40.221Z,1014.5
2022-07-27T20:45:51.399Z,1014.5
2022-07-27T20:49:03.553Z,1014.5
2022-07-27T20:52:15.706Z,1014.5
2022-07-27T20:55:27.848Z,1014.6
2022-07-27T20:58:39.996Z,1014.6
2022-07-27T21:01:52.163Z,1014.5
2022-07-27T21:05:04.311Z,1014.5
2022-07-27T21:08:16.454Z,1014.6
2022-07-27T21:11:28.603Z,1014.5
2022-07-27T21:14:40.763Z,1014.6
2022-07-27T21:17:52.905Z,1014.7
2022-07-27T21:21:05.061Z,1014.7
2022-07-27T21:24:17.214Z,1014.8
2022-07-27T21:27:28.377Z,1014.8
2022-07-27T21:30:40.541Z,1014.8
2022-07-27T21:33:52.678Z,1014.8
2022-07-27T21:37:04.838Z,1014.8
2022-07-27T21:40:16.984Z,1014.9
2022-07-27T21:43:28.161Z,1014.9
2022-07-27T21:46:40.304Z,1014.8
2022-07-27T21:49:51.482Z,1015
2022-07-27T21:53:02.661Z,1014.9
2022-07-27T21:56:14.810Z,1015
2022-07-27T21:59:26.967Z,1014.9
2022-07-27T22:02:39.120Z,1015
2022-07-27T22:05:51.271Z,1015.1
2022-07-27T22:09:03.407Z,1015.1
2022-07-27T22:12:15.563Z,1015.1
2022-07-27T22:15:27.714Z,1015.1
2022-07-27T22:18:39.872Z,1015.1
2022-07-27T22:21:52.029Z,1015.1
2022-07-27T22:25:04.169Z,1015.1
2022-07-27T22:28:16.317Z,1015.1
2022-07-27T22:31:28.464Z,1015.1
2022-07-27T22:34:39.650Z,1015.1
2022-07-27T22:37:51.798Z,1015.1
2022-07-27T22:41:03.936Z,1015.1
2022-07-27T22:44:16.086Z,1015.1
2022-07-27T22:47:28.241Z,1015.2
2022-07-27T22:50:40.394Z,1015.1
2022-07-27T22:53:52.555Z,1015.2
2022-07-27T22:57:03.735Z,1015.2
2022-07-27T23:00:14.886Z,1015.1
2022-07-27T23:03:26.062Z,1015.3
2022-07-27T23:06:37.232Z,1015.2
2022-07-27T23:09:49.390Z,1015.3
2022-07-27T23:13:01.536Z,1015.3
2022-07-27T23:16:13.690Z,1015.3
2022-07-27T23:19:25.838Z,1015.2
2022-07-27T23:22:37.989Z,1015.3
2022-07-27T23:25:50.136Z,1015.3
2022-07-27T23:29:02.304Z,1015.3
2022-07-27T23:32:14.455Z,1015.3
2022-07-27T23:35:26.592Z,1015.2
2022-07-27T23:38:38.758Z,1015.3
2022-07-27T23:41:50.909Z,1015.4
2022-07-27T23:45:03.061Z,1015.4
2022-07-27T23:48:14.213Z,1015.4
2022-07-27T23:51:26.361Z,1015.4
2022-07-27T23:54:38.530Z,1015.4
2022-07-27T23:57:50.681Z,1015.5
